sensor_id;sensor_type;location;lat;lon;timestamp;pressure;altitude;pressure_sealevel;temperature;humidity
64362;BME280;50685;53.346;-6.296;2023-04-09T00:01:12;101795.00;;;9.72;59.54
64362;BME280;50685;53.346;-6.296;2023-04-09T00:03:37;101869.47;;;10.10;59.49
64362;BME280;50685;53.346;-6.296;2023-04-09T00:06:04;101813.63;;;9.84;59.23
64362;BME280;50685;53.346;-6.296;2023-04-09T00:08:33;101858.84;;;10.06;59.20
64362;BME280;50685;53.346;-6.296;2023-04-09T00:10:59;101780.78;;;9.57;58.87
64362;BME280;50685;53.346;-6.296;2023-04-09T00:13:25;101815.41;;;9.85;58.57
64362;BME280;50685;53.346;-6.296;2023-04-09T00:15:51;101832.34;;;10.07;58.38
64362;BME280;50685;53.346;-6.296;2023-04-09T00:18:16;101769.44;;;9.72;58.26
64362;BME280;50685;53.346;-6.296;2023-04-09T00:20:44;101758.81;;;9.71;57.84
64362;BME280;50685;53.346;-6.296;2023-04-09T00:23:10;101796.00;;;9.88;57.88
64362;BME280;50685;53.346;-6.296;2023-04-09T00:25:35;101773.00;;;9.80;58.28
64362;BME280;50685;53.346;-6.296;2023-04-09T00:28:02;101786.28;;;9.82;59.33
64362;BME280;50685;53.346;-6.296;2023-04-09T00:30:30;101745.50;;;9.60;59.82
64362;BME280;50685;53.346;-6.296;2023-04-09T00:32:56;101767.66;;;9.74;60.41
64362;BME280;50685;53.346;-6.296;2023-04-09T00:35:26;101800.38;;;9.79;61.57
64362;BME280;50685;53.346;-6.296;2023-04-09T00:37:52;101782.63;;;9.68;62.01
64362;BME280;50685;53.346;-6.296;2023-04-09T00:40:17;101829.56;;;9.90;62.63
64362;BME280;50685;53.346;-6.296;2023-04-09T00:42:43;101770.19;;;9.56;63.20
64362;BME280;50685;53.346;-6.296;2023-04-09T00:45:09;101771.97;;;9.58;63.44
64362;BME280;50685;53.346;-6.296;2023-04-09T00:47:35;101818.06;;;9.82;63.84
64362;BME280;50685;53.346;-6.296;2023-04-09T00:50:01;101762.22;;;9.54;63.69
64362;BME280;50685;53.346;-6.296;2023-04-09T00:52:27;101766.59;;;9.47;63.60
64362;BME280;50685;53.346;-6.296;2023-04-09T00:54:55;101765.66;;;9.42;63.74
64362;BME280;50685;53.346;-6.296;2023-04-09T00:57:22;101749.81;;;9.44;63.72
64362;BME280;50685;53.346;-6.296;2023-04-09T00:59:51;101762.16;;;9.40;64.14
64362;BME280;50685;53.346;-6.296;2023-04-09T01:02:16;101779.00;;;9.52;64.18
64362;BME280;50685;53.346;-6.296;2023-04-09T01:04:42;101812.72;;;9.76;64.76
64362;BME280;50685;53.346;-6.296;2023-04-09T01:10:37;101803.84;;;9.71;64.83
64362;BME280;50685;53.346;-6.296;2023-04-09T01:13:14;101795.88;;;9.69;64.22
64362;BME280;50685;53.346;-6.296;2023-04-09T01:15:48;101735.59;;;9.29;64.08
64362;BME280;50685;53.346;-6.296;2023-04-09T01:18:39;101795.88;;;9.68;63.72
64362;BME280;50685;53.346;-6.296;2023-04-09T01:21:18;101764.84;;;9.51;63.91
64362;BME280;50685;53.346;-6.296;2023-04-09T01:26:44;101744.47;;;9.39;64.46
64362;BME280;50685;53.346;-6.296;2023-04-09T01:29:18;101725.81;;;9.24;64.91
64362;BME280;50685;53.346;-6.296;2023-04-09T01:31:44;101787.03;;;9.62;64.93
64362;BME280;50685;53.346;-6.296;2023-04-09T01:34:12;101766.63;;;9.49;65.40
64362;BME280;50685;53.346;-6.296;2023-04-09T01:36:39;101714.38;;;9.23;65.60
64362;BME280;50685;53.346;-6.296;2023-04-09T01:39:06;101716.16;;;9.27;66.01
64362;BME280;50685;53.346;-6.296;2023-04-09T01:41:34;101760.41;;;9.44;66.54
64362;BME280;50685;53.346;-6.296;2023-04-09T01:44:02;101765.72;;;9.45;66.42
64362;BME280;50685;53.346;-6.296;2023-04-09T01:46:28;101763.03;;;9.42;66.48
64362;BME280;50685;53.346;-6.296;2023-04-09T01:48:55;101724.91;;;9.20;66.40
64362;BME280;50685;53.346;-6.296;2023-04-09T01:51:21;101788.72;;;9.57;66.32
64362;BME280;50685;53.346;-6.296;2023-04-09T01:53:47;101732.13;;;9.37;66.00
64362;BME280;50685;53.346;-6.296;2023-04-09T01:56:13;101714.31;;;9.19;65.98
64362;BME280;50685;53.346;-6.296;2023-04-09T01:58:39;101705.50;;;9.18;65.74
64362;BME280;50685;53.346;-6.296;2023-04-09T02:01:09;101762.25;;;9.56;65.28
64362;BME280;50685;53.346;-6.296;2023-04-09T02:03:52;101719.69;;;9.29;65.00
64362;BME280;50685;53.346;-6.296;2023-04-09T02:06:33;101679.91;;;9.19;65.06
64362;BME280;50685;53.346;-6.296;2023-04-09T02:09:07;101715.34;;;9.41;65.06
64362;BME280;50685;53.346;-6.296;2023-04-09T02:11:33;101659.56;;;9.10;65.19
64362;BME280;50685;53.346;-6.296;2023-04-09T02:14:03;101682.59;;;9.23;65.07
64362;BME280;50685;53.346;-6.296;2023-04-09T02:16:38;101718.03;;;9.44;65.38
64362;BME280;50685;53.346;-6.296;2023-04-09T02:19:04;101679.91;;;9.22;65.42
64362;BME280;50685;53.346;-6.296;2023-04-09T02:21:32;101681.66;;;9.15;65.71
64362;BME280;50685;53.346;-6.296;2023-04-09T02:23:58;101709.06;;;9.26;65.71
64362;BME280;50685;53.346;-6.296;2023-04-09T02:26:23;101668.31;;;9.03;66.01
64362;BME280;50685;53.346;-6.296;2023-04-09T02:28:51;101722.44;;;9.40;66.38
64362;BME280;50685;53.346;-6.296;2023-04-09T02:31:23;101641.81;;;8.95;66.94
64362;BME280;50685;53.346;-6.296;2023-04-09T02:33:49;101677.22;;;9.11;67.45
64362;BME280;50685;53.346;-6.296;2023-04-09T02:36:14;101652.38;;;8.93;67.60
64362;BME280;50685;53.346;-6.296;2023-04-09T02:38:43;101635.56;;;8.85;67.93
64362;BME280;50685;53.346;-6.296;2023-04-09T02:41:12;101640.88;;;8.90;68.12
64362;BME280;50685;53.346;-6.296;2023-04-09T02:43:40;101649.66;;;8.87;68.75
64362;BME280;50685;53.346;-6.296;2023-04-09T02:46:06;101641.78;;;8.90;68.55
64362;BME280;50685;53.346;-6.296;2023-04-09T02:48:32;101638.22;;;8.90;68.18
64362;BME280;50685;53.346;-6.296;2023-04-09T02:50:58;101638.25;;;8.91;68.21
64362;BME280;50685;53.346;-6.296;2023-04-09T02:53:23;101709.13;;;9.29;67.85
64362;BME280;50685;53.346;-6.296;2023-04-09T02:55:52;101658.63;;;9.02;67.65
64362;BME280;50685;53.346;-6.296;2023-04-09T02:58:20;101664.81;;;9.04;67.33
64362;BME280;50685;53.346;-6.296;2023-04-09T03:00:46;101664.81;;;9.07;67.21
64362;BME280;50685;53.346;-6.296;2023-04-09T03:03:14;101636.44;;;8.87;67.22
64362;BME280;50685;53.346;-6.296;2023-04-09T03:05:39;101657.69;;;8.99;67.24
64362;BME280;50685;53.346;-6.296;2023-04-09T03:08:05;101666.56;;;9.03;67.12
64362;BME280;50685;53.346;-6.296;2023-04-09T03:10:31;101700.25;;;9.27;66.94
64362;BME280;50685;53.346;-6.296;2023-04-09T03:12:59;101698.53;;;9.29;67.21
64362;BME280;50685;53.346;-6.296;2023-04-09T03:15:25;101624.13;;;8.91;66.94
64362;BME280;50685;53.346;-6.296;2023-04-09T03:17:50;101650.72;;;9.08;66.96
64362;BME280;50685;53.346;-6.296;2023-04-09T03:20:16;101618.88;;;8.92;67.43
64362;BME280;50685;53.346;-6.296;2023-04-09T03:22:41;101679.97;;;9.26;67.49
64362;BME280;50685;53.346;-6.296;2023-04-09T03:25:10;101657.84;;;9.15;67.57
64362;BME280;50685;53.346;-6.296;2023-04-09T03:27:36;101629.50;;;9.02;67.67
64362;BME280;50685;53.346;-6.296;2023-04-09T03:30:02;101623.31;;;8.96;67.59
64362;BME280;50685;53.346;-6.296;2023-04-09T03:32:28;101638.34;;;9.04;67.49
64362;BME280;50685;53.346;-6.296;2023-04-09T03:34:53;101664.13;;;9.29;67.71
64362;BME280;50685;53.346;-6.296;2023-04-09T03:37:19;101596.81;;;8.93;67.62
64362;BME280;50685;53.346;-6.296;2023-04-09T03:39:47;101578.28;;;8.90;67.17
64362;BME280;50685;53.346;-6.296;2023-04-09T03:42:16;101607.53;;;9.12;67.29
64362;BME280;50685;53.346;-6.296;2023-04-09T03:44:41;101658.84;;;9.39;67.43
64362;BME280;50685;53.346;-6.296;2023-04-09T03:47:07;101583.59;;;8.93;67.54
64362;BME280;50685;53.346;-6.296;2023-04-09T03:49:34;101618.16;;;9.23;67.78
64362;BME280;50685;53.346;-6.296;2023-04-09T03:52:02;101572.13;;;8.96;67.99
64362;BME280;50685;53.346;-6.296;2023-04-09T03:54:29;101596.94;;;9.07;67.93
64362;BME280;50685;53.346;-6.296;2023-04-09T03:56:54;101571.25;;;8.94;68.39
64362;BME280;50685;53.346;-6.296;2023-04-09T03:59:21;101589.78;;;8.97;69.02
64362;BME280;50685;53.346;-6.296;2023-04-09T04:01:46;101636.72;;;9.29;68.90
64362;BME280;50685;53.346;-6.296;2023-04-09T04:04:12;101603.09;;;9.08;69.43
64362;BME280;50685;53.346;-6.296;2023-04-09T04:06:38;101632.31;;;9.25;70.00
64362;BME280;50685;53.346;-6.296;2023-04-09T04:09:15;101590.66;;;8.96;70.73
64362;BME280;50685;53.346;-6.296;2023-04-09T04:11:41;101557.91;;;8.78;71.05
64362;BME280;50685;53.346;-6.296;2023-04-09T04:14:06;101548.25;;;8.79;71.15
64362;BME280;50685;53.346;-6.296;2023-04-09T04:16:32;101543.81;;;8.76;71.39
64362;BME280;50685;53.346;-6.296;2023-04-09T04:18:58;101609.31;;;9.14;71.62
64362;BME280;50685;53.346;-6.296;2023-04-09T04:21:23;101611.06;;;9.15;71.68
64362;BME280;50685;53.346;-6.296;2023-04-09T04:23:49;101536.75;;;8.75;71.91
64362;BME280;50685;53.346;-6.296;2023-04-09T04:26:14;101554.47;;;8.90;72.07
64362;BME280;50685;53.346;-6.296;2023-04-09T04:28:46;101603.13;;;9.15;71.75
64362;BME280;50685;53.346;-6.296;2023-04-09T04:31:14;101525.28;;;8.75;71.93
64362;BME280;50685;53.346;-6.296;2023-04-09T04:33:40;101574.81;;;9.00;71.87
64362;BME280;50685;53.346;-6.296;2023-04-09T04:36:08;101561.59;;;8.99;72.12
64362;BME280;50685;53.346;-6.296;2023-04-09T04:38:41;101590.78;;;9.16;72.52
64362;BME280;50685;53.346;-6.296;2023-04-09T04:41:13;101536.00;;;8.99;72.28
64362;BME280;50685;53.346;-6.296;2023-04-09T04:43:39;101498.81;;;8.75;73.00
64362;BME280;50685;53.346;-6.296;2023-04-09T04:46:05;101497.94;;;8.73;72.78
64362;BME280;50685;53.346;-6.296;2023-04-09T04:48:34;101523.59;;;8.88;72.73
64362;BME280;50685;53.346;-6.296;2023-04-09T04:51:00;101497.94;;;8.74;73.16
64362;BME280;50685;53.346;-6.296;2023-04-09T04:53:32;101500.59;;;8.76;73.01
64362;BME280;50685;53.346;-6.296;2023-04-09T04:55:58;101510.31;;;8.77;73.16
64362;BME280;50685;53.346;-6.296;2023-04-09T04:58:26;101514.75;;;8.87;73.43
64362;BME280;50685;53.346;-6.296;2023-04-09T05:00:52;101500.59;;;8.76;73.35
64362;BME280;50685;53.346;-6.296;2023-04-09T05:03:18;101543.13;;;9.08;73.64
64362;BME280;50685;53.346;-6.296;2023-04-09T05:05:43;101538.72;;;9.07;73.55
64362;BME280;50685;53.346;-6.296;2023-04-09T05:08:10;101473.22;;;8.64;73.93
64362;BME280;50685;53.346;-6.296;2023-04-09T05:10:36;101469.72;;;8.73;73.73
64362;BME280;50685;53.346;-6.296;2023-04-09T05:13:01;101528.13;;;9.10;74.00
64362;BME280;50685;53.346;-6.296;2023-04-09T05:15:37;101465.34;;;8.77;74.17
64362;BME280;50685;53.346;-6.296;2023-04-09T05:18:07;101469.72;;;8.73;74.21
64362;BME280;50685;53.346;-6.296;2023-04-09T05:20:35;101520.19;;;9.09;74.39
64362;BME280;50685;53.346;-6.296;2023-04-09T05:23:01;101466.28;;;8.85;74.20
64362;BME280;50685;53.346;-6.296;2023-04-09T05:25:26;101481.31;;;8.97;74.61
64362;BME280;50685;53.346;-6.296;2023-04-09T05:27:52;101452.13;;;8.75;74.52
64362;BME280;50685;53.346;-6.296;2023-04-09T05:30:17;101516.63;;;9.07;74.81
64362;BME280;50685;53.346;-6.296;2023-04-09T05:32:43;101452.13;;;8.77;74.36
64362;BME280;50685;53.346;-6.296;2023-04-09T05:35:08;101428.25;;;8.66;74.55
64362;BME280;50685;53.346;-6.296;2023-04-09T05:37:34;101519.28;;;9.07;74.73
64362;BME280;50685;53.346;-6.296;2023-04-09T05:40:00;101504.28;;;9.06;74.84
64362;BME280;50685;53.346;-6.296;2023-04-09T05:42:27;101512.22;;;9.04;75.22
64362;BME280;50685;53.346;-6.296;2023-04-09T05:44:59;101435.34;;;8.73;75.07
64362;BME280;50685;53.346;-6.296;2023-04-09T05:47:24;101462.72;;;8.84;75.16
64362;BME280;50685;53.346;-6.296;2023-04-09T05:49:50;101454.78;;;8.75;75.27
64362;BME280;50685;53.346;-6.296;2023-04-09T05:52:18;101462.72;;;8.83;75.45
64362;BME280;50685;53.346;-6.296;2023-04-09T05:54:45;101422.94;;;8.61;75.46
64362;BME280;50685;53.346;-6.296;2023-04-09T05:57:11;101448.56;;;8.73;75.60
64362;BME280;50685;53.346;-6.296;2023-04-09T05:59:36;101419.38;;;8.58;75.71
64362;BME280;50685;53.346;-6.296;2023-04-09T06:02:09;101450.34;;;8.77;75.67
64362;BME280;50685;53.346;-6.296;2023-04-09T06:04:35;101501.59;;;8.98;76.33
64362;BME280;50685;53.346;-6.296;2023-04-09T06:07:01;101501.63;;;9.01;76.03
64362;BME280;50685;53.346;-6.296;2023-04-09T06:09:26;101451.25;;;8.76;76.06
64362;BME280;50685;53.346;-6.296;2023-04-09T06:11:52;101433.56;;;8.64;75.97
64362;BME280;50685;53.346;-6.296;2023-04-09T06:14:18;101504.28;;;9.06;76.06
64362;BME280;50685;53.346;-6.296;2023-04-09T06:16:43;101459.19;;;8.79;76.12
64362;BME280;50685;53.346;-6.296;2023-04-09T06:19:09;101441.47;;;8.63;75.80
64362;BME280;50685;53.346;-6.296;2023-04-09T06:21:36;101460.94;;;8.74;75.85
64362;BME280;50685;53.346;-6.296;2023-04-09T06:24:08;101492.81;;;9.02;75.88
64362;BME280;50685;53.346;-6.296;2023-04-09T06:26:34;101480.44;;;8.99;75.73
64362;BME280;50685;53.346;-6.296;2023-04-09T06:29:00;101482.25;;;9.05;75.41
64362;BME280;50685;53.346;-6.296;2023-04-09T06:31:26;101447.81;;;8.97;75.19
64362;BME280;50685;53.346;-6.296;2023-04-09T06:33:52;101515.91;;;9.42;74.46
64362;BME280;50685;53.346;-6.296;2023-04-09T06:36:18;101518.59;;;9.46;74.28
64362;BME280;50685;53.346;-6.296;2023-04-09T06:38:44;101458.50;;;9.22;74.36
64362;BME280;50685;53.346;-6.296;2023-04-09T06:41:09;101438.19;;;9.20;74.23
64362;BME280;50685;53.346;-6.296;2023-04-09T06:43:36;101513.34;;;9.67;73.72
64362;BME280;50685;53.346;-6.296;2023-04-09T06:46:02;101434.69;;;9.28;73.76
64362;BME280;50685;53.346;-6.296;2023-04-09T06:48:28;101446.19;;;9.40;74.11
64362;BME280;50685;53.346;-6.296;2023-04-09T06:50:56;101444.41;;;9.31;74.25
64362;BME280;50685;53.346;-6.296;2023-04-09T06:53:21;101487.72;;;9.67;74.35
64362;BME280;50685;53.346;-6.296;2023-04-09T06:55:47;101464.78;;;9.54;74.32
64362;BME280;50685;53.346;-6.296;2023-04-09T06:58:12;101414.41;;;9.24;74.46
64362;BME280;50685;53.346;-6.296;2023-04-09T07:00:38;101471.00;;;9.70;74.44
64362;BME280;50685;53.346;-6.296;2023-04-09T07:03:04;101439.13;;;9.45;74.56
64362;BME280;50685;53.346;-6.296;2023-04-09T07:05:32;101463.91;;;9.70;74.53
64362;BME280;50685;53.346;-6.296;2023-04-09T07:07:57;101448.00;;;9.62;74.68
64362;BME280;50685;53.346;-6.296;2023-04-09T07:10:22;101451.53;;;9.77;74.58
64362;BME280;50685;53.346;-6.296;2023-04-09T07:12:51;101427.69;;;9.63;74.52
64362;BME280;50685;53.346;-6.296;2023-04-09T07:15:16;101399.44;;;9.51;74.88
64362;BME280;50685;53.346;-6.296;2023-04-09T07:17:42;101358.84;;;9.38;74.51
64362;BME280;50685;53.346;-6.296;2023-04-09T07:20:07;101440.97;;;9.86;74.42
64362;BME280;50685;53.346;-6.296;2023-04-09T07:22:36;101345.59;;;9.44;74.28
64362;BME280;50685;53.346;-6.296;2023-04-09T07:25:02;101362.38;;;9.56;74.22
64362;BME280;50685;53.346;-6.296;2023-04-09T07:27:28;101367.66;;;9.68;74.20
64362;BME280;50685;53.346;-6.296;2023-04-09T07:29:54;101361.47;;;9.83;74.27
64362;BME280;50685;53.346;-6.296;2023-04-09T07:32:21;101395.94;;;9.95;73.90
64362;BME280;50685;53.346;-6.296;2023-04-09T07:34:46;101357.94;;;9.84;73.82
64362;BME280;50685;53.346;-6.296;2023-04-09T07:37:12;101388.84;;;10.08;73.75
64362;BME280;50685;53.346;-6.296;2023-04-09T07:39:37;101386.22;;;10.07;73.99
64362;BME280;50685;53.346;-6.296;2023-04-09T07:42:04;101357.94;;;9.90;74.19
64362;BME280;50685;53.346;-6.296;2023-04-09T07:44:36;101327.03;;;9.89;73.75
64362;BME280;50685;53.346;-6.296;2023-04-09T07:47:03;101324.38;;;10.03;72.98
64362;BME280;50685;53.346;-6.296;2023-04-09T07:49:28;101364.06;;;10.34;73.38
64362;BME280;50685;53.346;-6.296;2023-04-09T07:51:56;101322.59;;;10.11;73.21
64362;BME280;50685;53.346;-6.296;2023-04-09T07:54:21;101330.50;;;10.22;72.62
64362;BME280;50685;53.346;-6.296;2023-04-09T07:56:47;101344.63;;;10.41;72.61
64362;BME280;50685;53.346;-6.296;2023-04-09T07:59:15;101304.88;;;10.27;72.24
64362;BME280;50685;53.346;-6.296;2023-04-09T08:01:44;101346.28;;;10.69;72.19
64362;BME280;50685;53.346;-6.296;2023-04-09T08:04:09;101301.28;;;10.53;71.62
64362;BME280;50685;53.346;-6.296;2023-04-09T08:06:37;101305.59;;;10.73;70.65
64362;BME280;50685;53.346;-6.296;2023-04-09T08:09:03;101369.09;;;11.02;70.50
64362;BME280;50685;53.346;-6.296;2023-04-09T08:11:28;101356.78;;;10.93;70.36
64362;BME280;50685;53.346;-6.296;2023-04-09T08:13:57;101305.59;;;10.67;70.51
64362;BME280;50685;53.346;-6.296;2023-04-09T08:16:25;101324.13;;;10.82;70.57
64362;BME280;50685;53.346;-6.296;2023-04-09T08:18:51;101316.16;;;10.81;70.64
64362;BME280;50685;53.346;-6.296;2023-04-09T08:21:17;101279.97;;;10.64;70.55
64362;BME280;50685;53.346;-6.296;2023-04-09T08:23:43;101354.00;;;11.12;70.12
64362;BME280;50685;53.346;-6.296;2023-04-09T08:26:11;101362.84;;;11.19;69.96
64362;BME280;50685;53.346;-6.296;2023-04-09T08:28:37;101320.53;;;10.89;69.80
64362;BME280;50685;53.346;-6.296;2023-04-09T08:31:02;101325.75;;;11.03;69.76
64362;BME280;50685;53.346;-6.296;2023-04-09T08:33:30;101309.88;;;10.97;68.85
64362;BME280;50685;53.346;-6.296;2023-04-09T08:35:59;101355.66;;;11.32;68.82
64362;BME280;50685;53.346;-6.296;2023-04-09T08:38:24;101301.91;;;10.97;69.49
64362;BME280;50685;53.346;-6.296;2023-04-09T08:40:50;101322.19;;;11.06;69.94
64362;BME280;50685;53.346;-6.296;2023-04-09T08:43:23;101308.16;;;10.91;69.86
64362;BME280;50685;53.346;-6.296;2023-04-09T08:45:51;101381.34;;;11.31;70.00
64362;BME280;50685;53.346;-6.296;2023-04-09T08:48:18;101321.38;;;10.96;69.75
64362;BME280;50685;53.346;-6.296;2023-04-09T08:50:47;101340.75;;;11.11;69.66
64362;BME280;50685;53.346;-6.296;2023-04-09T08:53:14;101368.00;;;11.39;68.19
64362;BME280;50685;53.346;-6.296;2023-04-09T08:55:44;101312.38;;;11.19;67.56
64362;BME280;50685;53.346;-6.296;2023-04-09T08:58:10;101344.16;;;11.33;68.04
64362;BME280;50685;53.346;-6.296;2023-04-09T09:00:39;101328.22;;;11.31;67.85
64362;BME280;50685;53.346;-6.296;2023-04-09T09:03:13;101361.66;;;11.58;67.71
64362;BME280;50685;53.346;-6.296;2023-04-09T09:05:41;101353.59;;;11.69;67.71
64362;BME280;50685;53.346;-6.296;2023-04-09T09:08:11;101337.75;;;11.62;66.72
64362;BME280;50685;53.346;-6.296;2023-04-09T09:10:41;101287.47;;;11.37;66.44
64362;BME280;50685;53.346;-6.296;2023-04-09T09:13:24;101346.41;;;11.81;65.75
64362;BME280;50685;53.346;-6.296;2023-04-09T09:15:54;101321.69;;;11.74;65.27
64362;BME280;50685;53.346;-6.296;2023-04-09T09:18:40;101359.53;;;12.04;65.45
64362;BME280;50685;53.346;-6.296;2023-04-09T09:21:16;101326.81;;;11.99;65.10
64362;BME280;50685;53.346;-6.296;2023-04-09T09:23:44;101310.97;;;11.85;65.00
64362;BME280;50685;53.346;-6.296;2023-04-09T09:26:21;101326.75;;;12.03;64.91
64362;BME280;50685;53.346;-6.296;2023-04-09T09:28:49;101272.25;;;11.59;65.33
64362;BME280;50685;53.346;-6.296;2023-04-09T09:31:16;101279.19;;;11.71;65.08
64362;BME280;50685;53.346;-6.296;2023-04-09T09:33:42;101298.53;;;11.87;65.40
64362;BME280;50685;53.346;-6.296;2023-04-09T09:36:08;101356.75;;;12.16;65.35
64362;BME280;50685;53.346;-6.296;2023-04-09T09:38:52;101287.13;;;11.76;65.07
64362;BME280;50685;53.346;-6.296;2023-04-09T09:41:18;101316.13;;;12.02;65.44
64362;BME280;50685;53.346;-6.296;2023-04-09T09:43:47;101286.25;;;11.75;65.15
64362;BME280;50685;53.346;-6.296;2023-04-09T09:46:16;101289.69;;;11.86;65.39
64362;BME280;50685;53.346;-6.296;2023-04-09T09:48:45;101333.63;;;12.25;64.79
64362;BME280;50685;53.346;-6.296;2023-04-09T09:51:12;101296.72;;;11.92;64.84
64362;BME280;50685;53.346;-6.296;2023-04-09T09:53:41;101289.69;;;11.83;65.00
64362;BME280;50685;53.346;-6.296;2023-04-09T09:56:17;101339.09;;;12.11;65.24
64362;BME280;50685;53.346;-6.296;2023-04-09T09:59:06;101328.56;;;12.00;65.55
64362;BME280;50685;53.346;-6.296;2023-04-09T10:01:33;101328.59;;;11.94;65.88
64362;BME280;50685;53.346;-6.296;2023-04-09T10:04:04;101322.47;;;11.85;66.04
64362;BME280;50685;53.346;-6.296;2023-04-09T10:06:39;101284.56;;;11.68;66.50
64362;BME280;50685;53.346;-6.296;2023-04-09T10:09:07;101338.41;;;11.85;66.89
64362;BME280;50685;53.346;-6.296;2023-04-09T10:11:39;101281.22;;;11.43;67.32
64362;BME280;50685;53.346;-6.296;2023-04-09T10:14:08;101268.91;;;11.34;68.16
64362;BME280;50685;53.346;-6.296;2023-04-09T10:16:34;101248.66;;;11.20;68.57
64362;BME280;50685;53.346;-6.296;2023-04-09T10:19:01;101313.88;;;11.57;68.92
64362;BME280;50685;53.346;-6.296;2023-04-09T10:21:54;101311.25;;;11.52;69.44
64362;BME280;50685;53.346;-6.296;2023-04-09T10:24:25;101283.97;;;11.30;70.14
64362;BME280;50685;53.346;-6.296;2023-04-09T10:26:53;101282.25;;;11.26;70.06
64362;BME280;50685;53.346;-6.296;2023-04-09T10:29:26;101239.94;;;11.04;70.42
64362;BME280;50685;53.346;-6.296;2023-04-09T10:31:54;101258.44;;;11.15;70.64
64362;BME280;50685;53.346;-6.296;2023-04-09T10:34:40;101220.50;;;10.99;70.59
64362;BME280;50685;53.346;-6.296;2023-04-09T10:37:25;101281.25;;;11.38;71.25
64362;BME280;50685;53.346;-6.296;2023-04-09T10:39:52;101277.72;;;11.39;71.47
64362;BME280;50685;53.346;-6.296;2023-04-09T10:42:56;101202.78;;;11.04;71.71
64362;BME280;50685;53.346;-6.296;2023-04-09T10:45:39;101223.09;;;11.10;72.08
64362;BME280;50685;53.346;-6.296;2023-04-09T10:48:11;101239.81;;;11.18;72.59
64362;BME280;50685;53.346;-6.296;2023-04-09T10:50:39;101196.69;;;10.90;72.74
64362;BME280;50685;53.346;-6.296;2023-04-09T10:53:25;101199.28;;;10.96;72.99
64362;BME280;50685;53.346;-6.296;2023-04-09T10:55:56;101193.13;;;10.94;73.05
64362;BME280;50685;53.346;-6.296;2023-04-09T10:58:22;101175.56;;;10.79;73.13
64362;BME280;50685;53.346;-6.296;2023-04-09T11:00:49;101172.88;;;10.85;73.39
64362;BME280;50685;53.346;-6.296;2023-04-09T11:03:26;101209.84;;;11.05;73.22
64362;BME280;50685;53.346;-6.296;2023-04-09T11:08:29;101218.44;;;11.35;72.72
64362;BME280;50685;53.346;-6.296;2023-04-09T11:10:59;101148.75;;;11.08;72.30
64362;BME280;50685;53.346;-6.296;2023-04-09T11:13:26;101176.84;;;11.36;72.12
64362;BME280;50685;53.346;-6.296;2023-04-09T11:15:55;101133.66;;;11.15;72.12
64362;BME280;50685;53.346;-6.296;2023-04-09T11:18:23;101148.50;;;11.36;71.82
64362;BME280;50685;53.346;-6.296;2023-04-09T11:21:00;101125.59;;;11.26;71.57
64362;BME280;50685;53.346;-6.296;2023-04-09T11:23:30;101126.41;;;11.31;71.17
64362;BME280;50685;53.346;-6.296;2023-04-09T11:25:56;101177.41;;;11.66;70.80
64362;BME280;50685;53.346;-6.296;2023-04-09T11:28:25;101130.56;;;11.57;70.21
64362;BME280;50685;53.346;-6.296;2023-04-09T11:30:52;101132.13;;;11.73;69.67
64362;BME280;50685;53.346;-6.296;2023-04-09T11:33:20;101119.97;;;11.55;69.14
64362;BME280;50685;53.346;-6.296;2023-04-09T11:35:50;101122.56;;;11.62;69.01
64362;BME280;50685;53.346;-6.296;2023-04-09T11:38:17;101104.84;;;11.61;67.22
64362;BME280;50685;53.346;-6.296;2023-04-09T11:40:43;101133.91;;;11.76;66.17
64362;BME280;50685;53.346;-6.296;2023-04-09T11:43:12;101108.22;;;11.73;66.82
64362;BME280;50685;53.346;-6.296;2023-04-09T11:45:40;101176.06;;;12.07;66.40
64362;BME280;50685;53.346;-6.296;2023-04-09T11:48:06;101150.47;;;11.95;66.07
64362;BME280;50685;53.346;-6.296;2023-04-09T11:50:38;101133.75;;;11.88;65.96
64362;BME280;50685;53.346;-6.296;2023-04-09T11:53:20;101129.44;;;11.77;65.23
64362;BME280;50685;53.346;-6.296;2023-04-09T11:55:50;101127.69;;;11.76;65.37
64362;BME280;50685;53.346;-6.296;2023-04-09T11:58:16;101128.53;;;11.79;65.23
64362;BME280;50685;53.346;-6.296;2023-04-09T12:00:42;101121.53;;;11.72;65.28
64362;BME280;50685;53.346;-6.296;2023-04-09T12:03:09;101123.28;;;11.76;65.06
64362;BME280;50685;53.346;-6.296;2023-04-09T12:05:35;101159.31;;;11.96;65.13
64362;BME280;50685;53.346;-6.296;2023-04-09T12:08:06;101194.59;;;12.12;65.11
64362;BME280;50685;53.346;-6.296;2023-04-09T12:10:36;101141.63;;;11.95;65.29
64362;BME280;50685;53.346;-6.296;2023-04-09T12:13:05;101107.31;;;11.76;65.48
64362;BME280;50685;53.346;-6.296;2023-04-09T12:15:35;101109.88;;;11.84;65.74
64362;BME280;50685;53.346;-6.296;2023-04-09T12:18:13;101118.50;;;12.03;65.67
64362;BME280;50685;53.346;-6.296;2023-04-09T12:20:41;101115.81;;;12.06;65.49
64362;BME280;50685;53.346;-6.296;2023-04-09T12:23:09;101137.03;;;12.11;65.52
64362;BME280;50685;53.346;-6.296;2023-04-09T12:25:53;101104.44;;;11.92;65.36
64362;BME280;50685;53.346;-6.296;2023-04-09T12:28:19;101159.88;;;12.23;65.51
64362;BME280;50685;53.346;-6.296;2023-04-09T12:30:45;101104.53;;;11.85;65.80
64362;BME280;50685;53.346;-6.296;2023-04-09T12:33:12;101137.09;;;12.06;65.98
64362;BME280;50685;53.346;-6.296;2023-04-09T12:35:38;101121.25;;;11.97;65.74
64362;BME280;50685;53.346;-6.296;2023-04-09T12:38:03;101158.06;;;12.26;65.95
64362;BME280;50685;53.346;-6.296;2023-04-09T12:40:29;101078.00;;;11.82;66.19
64362;BME280;50685;53.346;-6.296;2023-04-09T12:42:58;101068.19;;;11.87;66.21
64362;BME280;50685;53.346;-6.296;2023-04-09T12:45:26;101115.75;;;12.09;66.28
64362;BME280;50685;53.346;-6.296;2023-04-09T12:47:52;101067.28;;;11.87;66.18
64362;BME280;50685;53.346;-6.296;2023-04-09T12:50:17;101087.44;;;12.07;66.33
64362;BME280;50685;53.346;-6.296;2023-04-09T12:52:46;101112.06;;;12.21;66.04
64362;BME280;50685;53.346;-6.296;2023-04-09T12:55:12;101067.09;;;12.04;66.18
64362;BME280;50685;53.346;-6.296;2023-04-09T12:57:48;101052.09;;;12.00;66.40
64362;BME280;50685;53.346;-6.296;2023-04-09T13:00:14;101075.66;;;12.25;66.41